sensor_id;sensor_type;location;lat;lon;timestamp;pressure;altitude;pressure_sealevel;temperature;humidity
14067;BME280;7108;42.684;23.350;2024-02-23T00:01:28;95105.03;;;6.84;100.00
14067;BME280;7108;42.684;23.350;2024-02-23T00:03:53;95126.88;;;6.86;100.00
14067;BME280;7108;42.684;23.350;2024-02-23T00:06:20;95135.03;;;6.77;100.00
14067;BME280;7108;42.684;23.350;2024-02-23T00:08:46;95109.69;;;6.87;100.00
14067;BME280;7108;42.684;23.350;2024-02-23T00:11:11;95078.25;;;6.72;100.00
14067;BME280;7108;42.684;23.350;2024-02-23T00:13:36;95109.25;;;6.85;100.00
14067;BME280;7108;42.684;23.350;2024-02-23T00:16:02;95100.25;;;6.65;100.00
14067;BME280;7108;42.684;23.350;2024-02-23T00:18:28;95126.78;;;6.70;100.00
14067;BME280;7108;42.684;23.350;2024-02-23T00:20:53;95101.66;;;6.75;100.00
14067;BME280;7108;42.684;23.350;2024-02-23T00:23:18;95120.53;;;6.66;100.00
14067;BME280;7108;42.684;23.350;2024-02-23T00:25:44;95120.09;;;6.64;100.00
14067;BME280;7108;42.684;23.350;2024-02-23T00:28:10;95111.38;;;6.67;100.00
14067;BME280;7108;42.684;23.350;2024-02-23T00:30:35;95076.94;;;6.42;100.00
14067;BME280;7108;42.684;23.350;2024-02-23T00:33:01;95099.78;;;6.75;100.00
14067;BME280;7108;42.684;23.350;2024-02-23T00:35:26;95095.78;;;6.69;100.00
14067;BME280;7108;42.684;23.350;2024-02-23T00:37:52;95092.53;;;6.76;100.00
14067;BME280;7108;42.684;23.350;2024-02-23T00:40:17;95079.94;;;6.76;100.00
14067;BME280;7108;42.684;23.350;2024-02-23T00:42:43;95112.94;;;6.80;100.00
14067;BME280;7108;42.684;23.350;2024-02-23T00:45:08;95076.28;;;6.57;100.00
14067;BME280;7108;42.684;23.350;2024-02-23T00:47:33;95101.44;;;6.80;100.00
14067;BME280;7108;42.684;23.350;2024-02-23T00:50:01;95096.19;;;6.83;100.00
14067;BME280;7108;42.684;23.350;2024-02-23T00:52:26;95087.50;;;6.86;100.00
14067;BME280;7108;42.684;23.350;2024-02-23T00:54:52;95075.56;;;6.84;100.00
14067;BME280;7108;42.684;23.350;2024-02-23T00:57:17;95080.13;;;6.95;100.00
14067;BME280;7108;42.684;23.350;2024-02-23T00:59:47;95061.19;;;6.76;100.00
14067;BME280;7108;42.684;23.350;2024-02-23T01:02:12;95070.00;;;6.65;100.00
14067;BME280;7108;42.684;23.350;2024-02-23T01:04:37;95071.91;;;6.52;100.00
14067;BME280;7108;42.684;23.350;2024-02-23T01:07:03;95079.06;;;6.49;100.00
14067;BME280;7108;42.684;23.350;2024-02-23T01:09:28;95056.97;;;6.51;100.00
14067;BME280;7108;42.684;23.350;2024-02-23T01:11:54;95082.94;;;6.75;100.00
14067;BME280;7108;42.684;23.350;2024-02-23T01:14:19;95075.34;;;6.77;100.00
14067;BME280;7108;42.684;23.350;2024-02-23T01:16:44;95067.66;;;6.75;100.00
14067;BME280;7108;42.684;23.350;2024-02-23T01:19:10;95054.03;;;6.80;100.00
14067;BME280;7108;42.684;23.350;2024-02-23T01:21:35;95047.81;;;6.76;100.00
14067;BME280;7108;42.684;23.350;2024-02-23T01:24:00;95072.25;;;6.63;100.00
14067;BME280;7108;42.684;23.350;2024-02-23T01:26:26;95057.22;;;6.35;100.00
14067;BME280;7108;42.684;23.350;2024-02-23T01:28:52;95054.09;;;6.45;100.00
14067;BME280;7108;42.684;23.350;2024-02-23T01:31:18;95048.94;;;6.51;100.00
14067;BME280;7108;42.684;23.350;2024-02-23T01:33:44;95057.06;;;6.43;100.00
14067;BME280;7108;42.684;23.350;2024-02-23T01:36:09;95053.06;;;6.49;100.00
14067;BME280;7108;42.684;23.350;2024-02-23T01:38:35;95057.88;;;6.44;100.00
14067;BME280;7108;42.684;23.350;2024-02-23T01:41:00;95055.09;;;6.52;100.00
14067;BME280;7108;42.684;23.350;2024-02-23T01:43:26;95037.91;;;6.53;100.00
14067;BME280;7108;42.684;23.350;2024-02-23T01:45:52;95035.66;;;6.55;100.00
14067;BME280;7108;42.684;23.350;2024-02-23T01:48:18;95019.19;;;6.53;100.00
14067;BME280;7108;42.684;23.350;2024-02-23T01:50:44;95029.78;;;6.50;100.00
14067;BME280;7108;42.684;23.350;2024-02-23T01:53:11;95046.06;;;6.45;100.00
14067;BME280;7108;42.684;23.350;2024-02-23T01:55:40;95042.81;;;6.39;100.00
14067;BME280;7108;42.684;23.350;2024-02-23T01:58:09;95040.72;;;6.45;100.00
14067;BME280;7108;42.684;23.350;2024-02-23T02:00:35;95018.50;;;6.44;100.00
14067;BME280;7108;42.684;23.350;2024-02-23T02:03:01;95043.13;;;6.61;100.00
14067;BME280;7108;42.684;23.350;2024-02-23T02:05:26;95045.84;;;6.50;100.00
14067;BME280;7108;42.684;23.350;2024-02-23T02:07:55;95013.94;;;6.45;100.00
14067;BME280;7108;42.684;23.350;2024-02-23T02:10:24;95016.84;;;6.40;100.00
14067;BME280;7108;42.684;23.350;2024-02-23T02:12:50;95026.88;;;6.43;100.00
14067;BME280;7108;42.684;23.350;2024-02-23T02:15:16;95031.44;;;6.54;100.00
14067;BME280;7108;42.684;23.350;2024-02-23T02:17:41;95021.53;;;6.43;100.00
14067;BME280;7108;42.684;23.350;2024-02-23T02:20:12;95002.44;;;6.44;100.00
14067;BME280;7108;42.684;23.350;2024-02-23T02:22:38;95008.72;;;6.48;100.00
14067;BME280;7108;42.684;23.350;2024-02-23T02:25:10;95026.06;;;6.54;100.00
14067;BME280;7108;42.684;23.350;2024-02-23T02:27:35;95036.88;;;6.46;100.00
14067;BME280;7108;42.684;23.350;2024-02-23T02:30:01;95039.44;;;6.54;100.00
14067;BME280;7108;42.684;23.350;2024-02-23T02:32:27;95017.16;;;6.38;100.00
14067;BME280;7108;42.684;23.350;2024-02-23T02:34:52;95027.44;;;6.48;100.00
14067;BME280;7108;42.684;23.350;2024-02-23T02:37:17;95016.97;;;6.31;100.00
14067;BME280;7108;42.684;23.350;2024-02-23T02:39:43;95034.34;;;6.37;100.00
14067;BME280;7108;42.684;23.350;2024-02-23T02:42:08;95031.09;;;6.55;100.00
14067;BME280;7108;42.684;23.350;2024-02-23T02:44:34;95025.53;;;6.49;100.00
14067;BME280;7108;42.684;23.350;2024-02-23T02:47:00;95019.06;;;6.50;100.00
14067;BME280;7108;42.684;23.350;2024-02-23T02:49:25;95017.84;;;6.35;100.00
14067;BME280;7108;42.684;23.350;2024-02-23T02:51:51;95037.69;;;6.34;100.00
14067;BME280;7108;42.684;23.350;2024-02-23T02:54:16;95035.13;;;6.38;100.00
14067;BME280;7108;42.684;23.350;2024-02-23T02:56:43;95023.66;;;6.37;100.00
14067;BME280;7108;42.684;23.350;2024-02-23T02:59:09;95034.78;;;6.51;100.00
14067;BME280;7108;42.684;23.350;2024-02-23T03:01:35;95025.31;;;6.42;100.00
14067;BME280;7108;42.684;23.350;2024-02-23T03:04:00;95033.78;;;6.55;100.00
14067;BME280;7108;42.684;23.350;2024-02-23T03:06:26;95014.38;;;6.47;100.00
14067;BME280;7108;42.684;23.350;2024-02-23T03:08:51;95036.22;;;6.60;100.00
14067;BME280;7108;42.684;23.350;2024-02-23T03:11:16;95032.88;;;6.63;100.00
14067;BME280;7108;42.684;23.350;2024-02-23T03:13:42;95049.50;;;6.45;100.00
14067;BME280;7108;42.684;23.350;2024-02-23T03:16:20;95024.78;;;6.36;100.00
14067;BME280;7108;42.684;23.350;2024-02-23T03:18:46;95031.53;;;6.46;100.00
14067;BME280;7108;42.684;23.350;2024-02-23T03:21:12;95036.00;;;6.42;100.00
14067;BME280;7108;42.684;23.350;2024-02-23T03:23:39;95036.03;;;6.18;100.00
14067;BME280;7108;42.684;23.350;2024-02-23T03:26:06;95047.06;;;6.16;100.00
14067;BME280;7108;42.684;23.350;2024-02-23T03:28:32;95053.31;;;6.32;100.00
14067;BME280;7108;42.684;23.350;2024-02-23T03:30:57;95027.31;;;6.21;100.00
14067;BME280;7108;42.684;23.350;2024-02-23T03:33:23;95034.00;;;6.27;100.00
14067;BME280;7108;42.684;23.350;2024-02-23T03:35:48;95027.66;;;6.31;100.00
14067;BME280;7108;42.684;23.350;2024-02-23T03:38:14;95035.66;;;6.43;100.00
14067;BME280;7108;42.684;23.350;2024-02-23T03:40:39;95029.44;;;6.39;100.00
14067;BME280;7108;42.684;23.350;2024-02-23T03:43:05;95036.25;;;6.49;100.00
14067;BME280;7108;42.684;23.350;2024-02-23T03:45:31;95027.09;;;6.26;100.00
14067;BME280;7108;42.684;23.350;2024-02-23T03:47:56;95035.78;;;6.11;100.00
14067;BME280;7108;42.684;23.350;2024-02-23T03:50:22;95023.00;;;6.16;100.00
14067;BME280;7108;42.684;23.350;2024-02-23T03:52:47;95035.56;;;6.28;100.00
14067;BME280;7108;42.684;23.350;2024-02-23T03:55:12;95021.53;;;6.19;100.00
14067;BME280;7108;42.684;23.350;2024-02-23T03:57:38;95025.09;;;6.11;100.00
14067;BME280;7108;42.684;23.350;2024-02-23T04:00:04;95039.16;;;6.08;100.00
14067;BME280;7108;42.684;23.350;2024-02-23T04:02:31;95035.38;;;6.09;100.00
14067;BME280;7108;42.684;23.350;2024-02-23T04:04:56;95040.34;;;6.22;100.00
14067;BME280;7108;42.684;23.350;2024-02-23T04:07:22;95041.81;;;6.32;100.00
14067;BME280;7108;42.684;23.350;2024-02-23T04:09:47;95046.16;;;6.48;100.00
14067;BME280;7108;42.684;23.350;2024-02-23T04:12:20;95054.50;;;6.47;100.00
14067;BME280;7108;42.684;23.350;2024-02-23T04:14:45;95030.56;;;6.26;100.00
14067;BME280;7108;42.684;23.350;2024-02-23T04:17:11;95051.41;;;6.45;100.00
14067;BME280;7108;42.684;23.350;2024-02-23T04:19:37;95054.09;;;6.45;100.00
14067;BME280;7108;42.684;23.350;2024-02-23T04:22:03;95027.22;;;6.29;100.00
14067;BME280;7108;42.684;23.350;2024-02-23T04:24:28;95039.25;;;6.35;100.00
14067;BME280;7108;42.684;23.350;2024-02-23T04:26:53;95035.56;;;6.28;100.00
14067;BME280;7108;42.684;23.350;2024-02-23T04:29:19;95048.72;;;6.21;100.00
14067;BME280;7108;42.684;23.350;2024-02-23T04:31:44;95036.44;;;6.20;100.00
14067;BME280;7108;42.684;23.350;2024-02-23T04:34:10;95049.63;;;6.37;100.00
14067;BME280;7108;42.684;23.350;2024-02-23T04:36:35;95028.44;;;6.32;100.00
14067;BME280;7108;42.684;23.350;2024-02-23T04:39:01;95046.50;;;6.47;100.00
14067;BME280;7108;42.684;23.350;2024-02-23T04:41:26;95056.75;;;6.33;100.00
14067;BME280;7108;42.684;23.350;2024-02-23T04:43:51;95056.88;;;6.36;100.00
14067;BME280;7108;42.684;23.350;2024-02-23T04:46:18;95050.94;;;6.43;100.00
14067;BME280;7108;42.684;23.350;2024-02-23T04:48:43;95037.25;;;6.32;100.00
14067;BME280;7108;42.684;23.350;2024-02-23T04:51:09;95036.38;;;6.16;100.00
14067;BME280;7108;42.684;23.350;2024-02-23T04:53:40;95060.88;;;6.18;100.00
14067;BME280;7108;42.684;23.350;2024-02-23T04:56:06;95062.09;;;6.33;100.00
14067;BME280;7108;42.684;23.350;2024-02-23T04:58:31;95042.94;;;6.19;100.00
14067;BME280;7108;42.684;23.350;2024-02-23T05:00:57;95064.78;;;6.21;100.00
14067;BME280;7108;42.684;23.350;2024-02-23T05:03:22;95057.53;;;6.21;100.00
14067;BME280;7108;42.684;23.350;2024-02-23T05:05:47;95067.00;;;6.19;100.00
14067;BME280;7108;42.684;23.350;2024-02-23T05:08:16;95035.13;;;6.02;100.00
14067;BME280;7108;42.684;23.350;2024-02-23T05:10:41;95054.41;;;5.95;100.00
14067;BME280;7108;42.684;23.350;2024-02-23T05:13:06;95090.13;;;5.91;100.00
14067;BME280;7108;42.684;23.350;2024-02-23T05:15:32;95076.09;;;5.94;100.00
14067;BME280;7108;42.684;23.350;2024-02-23T05:17:57;95070.66;;;6.02;100.00
14067;BME280;7108;42.684;23.350;2024-02-23T05:20:23;95065.75;;;6.04;100.00
14067;BME280;7108;42.684;23.350;2024-02-23T05:22:48;95064.50;;;5.90;100.00
14067;BME280;7108;42.684;23.350;2024-02-23T05:25:13;95086.81;;;6.06;100.00
14067;BME280;7108;42.684;23.350;2024-02-23T05:27:39;95096.06;;;6.08;100.00
14067;BME280;7108;42.684;23.350;2024-02-23T05:30:05;95087.63;;;6.06;100.00
14067;BME280;7108;42.684;23.350;2024-02-23T05:32:31;95082.22;;;5.83;100.00
14067;BME280;7108;42.684;23.350;2024-02-23T05:34:57;95100.88;;;6.03;100.00
14067;BME280;7108;42.684;23.350;2024-02-23T05:37:22;95079.56;;;5.94;100.00
14067;BME280;7108;42.684;23.350;2024-02-23T05:39:48;95078.47;;;5.95;100.00
14067;BME280;7108;42.684;23.350;2024-02-23T05:42:13;95092.63;;;6.08;100.00
14067;BME280;7108;42.684;23.350;2024-02-23T05:44:38;95082.28;;;6.06;100.00
14067;BME280;7108;42.684;23.350;2024-02-23T05:47:05;95102.31;;;6.12;100.00
14067;BME280;7108;42.684;23.350;2024-02-23T05:49:30;95095.09;;;6.13;100.00
14067;BME280;7108;42.684;23.350;2024-02-23T05:51:55;95097.09;;;6.16;100.00
14067;BME280;7108;42.684;23.350;2024-02-23T05:54:21;95101.69;;;6.27;100.00
14067;BME280;7108;42.684;23.350;2024-02-23T05:56:46;95096.53;;;6.34;100.00
14067;BME280;7108;42.684;23.350;2024-02-23T05:59:12;95112.25;;;6.12;100.00
14067;BME280;7108;42.684;23.350;2024-02-23T06:01:38;95118.38;;;6.24;100.00
14067;BME280;7108;42.684;23.350;2024-02-23T06:04:03;95105.91;;;6.40;100.00
14067;BME280;7108;42.684;23.350;2024-02-23T06:06:29;95096.34;;;6.51;100.00
14067;BME280;7108;42.684;23.350;2024-02-23T06:08:54;95086.50;;;6.43;100.00
14067;BME280;7108;42.684;23.350;2024-02-23T06:11:20;95106.69;;;6.52;100.00
14067;BME280;7108;42.684;23.350;2024-02-23T06:13:46;95105.69;;;6.69;100.00
14067;BME280;7108;42.684;23.350;2024-02-23T06:16:11;95122.28;;;6.98;100.00
14067;BME280;7108;42.684;23.350;2024-02-23T06:18:38;95115.47;;;7.13;100.00
14067;BME280;7108;42.684;23.350;2024-02-23T06:21:16;95094.59;;;7.18;100.00
14067;BME280;7108;42.684;23.350;2024-02-23T06:23:43;95118.31;;;7.31;100.00
14067;BME280;7108;42.684;23.350;2024-02-23T06:26:09;95119.06;;;7.44;100.00
14067;BME280;7108;42.684;23.350;2024-02-23T06:28:34;95113.47;;;7.49;100.00
14067;BME280;7108;42.684;23.350;2024-02-23T06:31:00;95117.88;;;7.84;100.00
14067;BME280;7108;42.684;23.350;2024-02-23T06:33:25;95106.03;;;7.85;100.00
14067;BME280;7108;42.684;23.350;2024-02-23T06:35:51;95107.81;;;7.93;100.00
14067;BME280;7108;42.684;23.350;2024-02-23T06:38:17;95103.22;;;7.93;100.00
14067;BME280;7108;42.684;23.350;2024-02-23T06:40:44;95102.50;;;7.96;100.00
14067;BME280;7108;42.684;23.350;2024-02-23T06:43:09;95091.22;;;8.03;100.00
14067;BME280;7108;42.684;23.350;2024-02-23T06:45:37;95102.19;;;8.13;100.00
14067;BME280;7108;42.684;23.350;2024-02-23T06:48:03;95101.78;;;8.11;100.00
14067;BME280;7108;42.684;23.350;2024-02-23T06:50:29;95100.94;;;8.23;100.00
14067;BME280;7108;42.684;23.350;2024-02-23T06:52:54;95108.56;;;8.21;100.00
14067;BME280;7108;42.684;23.350;2024-02-23T06:55:20;95119.91;;;8.30;100.00
14067;BME280;7108;42.684;23.350;2024-02-23T06:57:46;95120.44;;;8.35;100.00
14067;BME280;7108;42.684;23.350;2024-02-23T07:00:12;95116.28;;;8.38;100.00
14067;BME280;7108;42.684;23.350;2024-02-23T07:02:38;95118.19;;;8.37;100.00
14067;BME280;7108;42.684;23.350;2024-02-23T07:05:04;95097.75;;;8.33;100.00
14067;BME280;7108;42.684;23.350;2024-02-23T07:07:30;95090.72;;;8.59;100.00
14067;BME280;7108;42.684;23.350;2024-02-23T07:09:56;95101.69;;;8.85;100.00
14067;BME280;7108;42.684;23.350;2024-02-23T07:12:21;95121.16;;;9.13;100.00
14067;BME280;7108;42.684;23.350;2024-02-23T07:14:49;95093.81;;;9.26;100.00
14067;BME280;7108;42.684;23.350;2024-02-23T07:17:18;95101.28;;;9.51;100.00
14067;BME280;7108;42.684;23.350;2024-02-23T07:19:44;95098.56;;;9.70;100.00
14067;BME280;7108;42.684;23.350;2024-02-23T07:22:09;95104.34;;;10.10;100.00
14067;BME280;7108;42.684;23.350;2024-02-23T07:24:39;95099.06;;;10.58;100.00
14067;BME280;7108;42.684;23.350;2024-02-23T07:27:05;95083.91;;;11.24;100.00
14067;BME280;7108;42.684;23.350;2024-02-23T07:29:30;95076.34;;;11.62;100.00
14067;BME280;7108;42.684;23.350;2024-02-23T07:31:56;95077.09;;;11.92;100.00
14067;BME280;7108;42.684;23.350;2024-02-23T07:34:21;95075.25;;;11.99;100.00
14067;BME280;7108;42.684;23.350;2024-02-23T07:36:47;95078.81;;;12.07;100.00
14067;BME280;7108;42.684;23.350;2024-02-23T07:39:13;95070.09;;;12.24;100.00
14067;BME280;7108;42.684;23.350;2024-02-23T07:41:38;95071.34;;;12.33;100.00
14067;BME280;7108;42.684;23.350;2024-02-23T07:44:04;95077.56;;;12.37;100.00
14067;BME280;7108;42.684;23.350;2024-02-23T07:46:29;95081.97;;;12.52;100.00
14067;BME280;7108;42.684;23.350;2024-02-23T07:48:54;95076.56;;;12.52;100.00
14067;BME280;7108;42.684;23.350;2024-02-23T07:51:20;95095.66;;;12.73;100.00
14067;BME280;7108;42.684;23.350;2024-02-23T07:53:45;95101.41;;;12.71;100.00
14067;BME280;7108;42.684;23.350;2024-02-23T07:56:11;95092.63;;;12.78;100.00
14067;BME280;7108;42.684;23.350;2024-02-23T07:58:37;95091.50;;;12.86;100.00
14067;BME280;7108;42.684;23.350;2024-02-23T08:01:03;95067.25;;;12.46;100.00
14067;BME280;7108;42.684;23.350;2024-02-23T08:03:29;95068.13;;;12.21;100.00
14067;BME280;7108;42.684;23.350;2024-02-23T08:05:54;95077.38;;;12.20;100.00
14067;BME280;7108;42.684;23.350;2024-02-23T08:08:20;95063.06;;;12.16;100.00
14067;BME280;7108;42.684;23.350;2024-02-23T08:10:47;95083.06;;;12.08;100.00
14067;BME280;7108;42.684;23.350;2024-02-23T08:13:13;95075.50;;;11.87;100.00
14067;BME280;7108;42.684;23.350;2024-02-23T08:15:38;95057.06;;;11.96;100.00
14067;BME280;7108;42.684;23.350;2024-02-23T08:18:04;95057.63;;;12.12;100.00
14067;BME280;7108;42.684;23.350;2024-02-23T08:20:29;95086.13;;;12.43;100.00
14067;BME280;7108;42.684;23.350;2024-02-23T08:22:55;95078.81;;;12.46;100.00
14067;BME280;7108;42.684;23.350;2024-02-23T08:25:20;95080.06;;;12.56;100.00
14067;BME280;7108;42.684;23.350;2024-02-23T08:27:46;95065.41;;;12.60;100.00
14067;BME280;7108;42.684;23.350;2024-02-23T08:30:13;95078.72;;;12.79;100.00
14067;BME280;7108;42.684;23.350;2024-02-23T08:32:39;95080.22;;;12.73;100.00
14067;BME280;7108;42.684;23.350;2024-02-23T08:35:05;95074.41;;;12.75;100.00
14067;BME280;7108;42.684;23.350;2024-02-23T08:37:30;95073.25;;;12.72;100.00
14067;BME280;7108;42.684;23.350;2024-02-23T08:39:56;95079.44;;;12.76;100.00
14067;BME280;7108;42.684;23.350;2024-02-23T08:42:21;95061.97;;;12.63;100.00
14067;BME280;7108;42.684;23.350;2024-02-23T08:44:47;95066.25;;;12.68;100.00
14067;BME280;7108;42.684;23.350;2024-02-23T08:47:13;95072.00;;;12.63;100.00
14067;BME280;7108;42.684;23.350;2024-02-23T08:49:38;95072.09;;;12.73;100.00
14067;BME280;7108;42.684;23.350;2024-02-23T08:52:04;95071.41;;;12.83;100.00
14067;BME280;7108;42.684;23.350;2024-02-23T08:54:30;95081.06;;;12.84;100.00
14067;BME280;7108;42.684;23.350;2024-02-23T08:56:55;95056.28;;;12.79;100.00
14067;BME280;7108;42.684;23.350;2024-02-23T08:59:21;95083.28;;;12.72;100.00
14067;BME280;7108;42.684;23.350;2024-02-23T09:01:46;95070.16;;;12.70;100.00
14067;BME280;7108;42.684;23.350;2024-02-23T09:04:12;95062.44;;;12.72;100.00
14067;BME280;7108;42.684;23.350;2024-02-23T09:06:38;95061.44;;;12.91;100.00
14067;BME280;7108;42.684;23.350;2024-02-23T09:09:03;95071.56;;;13.01;100.00
14067;BME280;7108;42.684;23.350;2024-02-23T09:11:29;95050.28;;;12.96;100.00
14067;BME280;7108;42.684;23.350;2024-02-23T09:13:54;95058.06;;;13.04;100.00
14067;BME280;7108;42.684;23.350;2024-02-23T09:16:20;95055.34;;;13.04;99.16
14067;BME280;7108;42.684;23.350;2024-02-23T09:18:47;95050.72;;;13.05;95.27
14067;BME280;7108;42.684;23.350;2024-02-23T09:21:14;95065.03;;;13.05;94.07
14067;BME280;7108;42.684;23.350;2024-02-23T09:23:39;95061.97;;;13.10;95.78
14067;BME280;7108;42.684;23.350;2024-02-23T09:26:09;95063.44;;;13.01;93.78
14067;BME280;7108;42.684;23.350;2024-02-23T09:28:36;95070.03;;;13.03;95.27
14067;BME280;7108;42.684;23.350;2024-02-23T09:31:04;95058.44;;;13.03;95.58
14067;BME280;7108;42.684;23.350;2024-02-23T09:33:30;95066.94;;;13.01;93.64
14067;BME280;7108;42.684;23.350;2024-02-23T09:35:58;95059.25;;;13.07;92.87
14067;BME280;7108;42.684;23.350;2024-02-23T09:38:25;95051.06;;;13.00;90.10
14067;BME280;7108;42.684;23.350;2024-02-23T09:40:51;95044.13;;;13.02;93.63
14067;BME280;7108;42.684;23.350;2024-02-23T09:43:17;95063.97;;;13.20;94.28
14067;BME280;7108;42.684;23.350;2024-02-23T09:45:44;95066.06;;;13.47;86.46
14067;BME280;7108;42.684;23.350;2024-02-23T09:48:10;95055.66;;;13.56;87.21
14067;BME280;7108;42.684;23.350;2024-02-23T09:50:37;95038.69;;;13.66;85.24
14067;BME280;7108;42.684;23.350;2024-02-23T09:53:04;95053.44;;;13.82;83.65
14067;BME280;7108;42.684;23.350;2024-02-23T09:55:29;95041.47;;;13.87;82.06
14067;BME280;7108;42.684;23.350;2024-02-23T09:57:57;95038.44;;;14.06;83.18
14067;BME280;7108;42.684;23.350;2024-02-23T10:00:23;95029.91;;;14.07;81.16
14067;BME280;7108;42.684;23.350;2024-02-23T10:02:49;95044.28;;;14.18;80.50
14067;BME280;7108;42.684;23.350;2024-02-23T10:05:16;95026.88;;;14.19;78.79
14067;BME280;7108;42.684;23.350;2024-02-23T10:07:42;95037.75;;;14.37;78.75
14067;BME280;7108;42.684;23.350;2024-02-23T10:10:09;95045.88;;;14.40;75.79
14067;BME280;7108;42.684;23.350;2024-02-23T10:12:37;95030.00;;;14.32;73.40
14067;BME280;7108;42.684;23.350;2024-02-23T10:15:03;95035.44;;;14.39;74.36
14067;BME280;7108;42.684;23.350;2024-02-23T10:17:32;95023.03;;;14.41;74.16
14067;BME280;7108;42.684;23.350;2024-02-23T10:19:59;95016.84;;;14.30;73.00
14067;BME280;7108;42.684;23.350;2024-02-23T10:22:24;95026.53;;;14.42;74.40
14067;BME280;7108;42.684;23.350;2024-02-23T10:24:50;95007.53;;;14.42;73.98
14067;BME280;7108;42.684;23.350;2024-02-23T10:27:16;95023.03;;;14.48;72.88
14067;BME280;7108;42.684;23.350;2024-02-23T10:29:42;95010.63;;;14.47;69.25
14067;BME280;7108;42.684;23.350;2024-02-23T10:32:10;95009.47;;;14.38;69.72
14067;BME280;7108;42.684;23.350;2024-02-23T10:34:42;94999.41;;;14.45;69.93
14067;BME280;7108;42.684;23.350;2024-02-23T10:37:08;95015.69;;;14.62;72.34
14067;BME280;7108;42.684;23.350;2024-02-23T10:39:36;94998.25;;;14.56;68.00
14067;BME280;7108;42.684;23.350;2024-02-23T10:42:03;94999.41;;;14.59;68.53
14067;BME280;7108;42.684;23.350;2024-02-23T10:44:30;94999.41;;;14.59;69.37
14067;BME280;7108;42.684;23.350;2024-02-23T10:46:58;94995.16;;;14.61;69.64
14067;BME280;7108;42.684;23.350;2024-02-23T10:49:24;94985.84;;;14.62;69.73
14067;BME280;7108;42.684;23.350;2024-02-23T10:51:57;94982.00;;;14.63;68.20
14067;BME280;7108;42.684;23.350;2024-02-23T10:54:22;94979.28;;;14.60;64.85
14067;BME280;7108;42.684;23.350;2024-02-23T10:56:49;94979.66;;;14.72;65.97
14067;BME280;7108;42.684;23.350;2024-02-23T10:59:15;94983.13;;;14.87;65.97
14067;BME280;7108;42.684;23.350;2024-02-23T11:01:53;94969.97;;;14.85;63.22
14067;BME280;7108;42.684;23.350;2024-02-23T11:04:23;94952.91;;;14.88;63.09
14067;BME280;7108;42.684;23.350;2024-02-23T11:06:50;94952.88;;;14.92;62.91
14067;BME280;7108;42.684;23.350;2024-02-23T11:09:16;94936.22;;;15.00;63.83
14067;BME280;7108;42.684;23.350;2024-02-23T11:11:52;94941.56;;;15.21;61.43
14067;BME280;7108;42.684;23.350;2024-02-23T11:14:18;94935.00;;;15.15;59.88
14067;BME280;7108;42.684;23.350;2024-02-23T11:16:54;94938.47;;;15.26;61.48
14067;BME280;7108;42.684;23.350;2024-02-23T11:19:19;94933.78;;;15.33;59.34
14067;BME280;7108;42.684;23.350;2024-02-23T11:21:52;94937.66;;;15.39;59.78
14067;BME280;7108;42.684;23.350;2024-02-23T11:24:18;94930.66;;;15.42;58.59
14067;BME280;7108;42.684;23.350;2024-02-23T11:26:43;94927.53;;;15.47;59.58
14067;BME280;7108;42.684;23.350;2024-02-23T11:29:10;94933.28;;;15.63;59.51
14067;BME280;7108;42.684;23.350;2024-02-23T11:31:44;94922.00;;;15.68;60.51
14067;BME280;7108;42.684;23.350;2024-02-23T11:34:10;94910.31;;;15.71;59.28
14067;BME280;7108;42.684;23.350;2024-02-23T11:36:38;94927.69;;;15.87;56.39
14067;BME280;7108;42.684;23.350;2024-02-23T11:39:03;94922.66;;;15.85;55.17
14067;BME280;7108;42.684;23.350;2024-02-23T11:41:30;94907.19;;;15.79;55.76
14067;BME280;7108;42.684;23.350;2024-02-23T11:43:58;94935.75;;;16.04;55.97
14067;BME280;7108;42.684;23.350;2024-02-23T11:46:24;94916.78;;;15.94;54.63
14067;BME280;7108;42.684;23.350;2024-02-23T11:48:49;94908.19;;;16.02;55.46
14067;BME280;7108;42.684;23.350;2024-02-23T11:51:22;94903.44;;;16.13;55.21
14067;BME280;7108;42.684;23.350;2024-02-23T11:53:49;94908.91;;;16.10;54.38
14067;BME280;7108;42.684;23.350;2024-02-23T11:56:15;94910.88;;;16.06;55.00
14067;BME280;7108;42.684;23.350;2024-02-23T11:58:43;94899.94;;;16.13;55.26
14067;BME280;7108;42.684;23.350;2024-02-23T12:01:09;94905.75;;;16.15;53.93
14067;BME280;7108;42.684;23.350;2024-02-23T12:03:40;94890.72;;;16.00;54.04
14067;BME280;7108;42.684;23.350;2024-02-23T12:06:07;94854.69;;;15.92;54.32
14067;BME280;7108;42.684;23.350;2024-02-23T12:08:32;94879.44;;;16.05;52.99
14067;BME280;7108;42.684;23.350;2024-02-23T12:11:03;94896.84;;;16.14;53.65
14067;BME280;7108;42.684;23.350;2024-02-23T12:13:32;94886.72;;;16.15;52.09
14067;BME280;7108;42.684;23.350;2024-02-23T12:15:58;94881.81;;;15.99;52.01
14067;BME280;7108;42.684;23.350;2024-02-23T12:18:30;94868.31;;;15.85;52.15
14067;BME280;7108;42.684;23.350;2024-02-23T12:21:02;94900.88;;;15.92;53.10
14067;BME280;7108;42.684;23.350;2024-02-23T12:23:43;94888.50;;;15.84;51.82
14067;BME280;7108;42.684;23.350;2024-02-23T12:26:09;94868.81;;;15.70;52.12
14067;BME280;7108;42.684;23.350;2024-02-23T12:28:35;94891.38;;;15.60;52.35
14067;BME280;7108;42.684;23.350;2024-02-23T12:31:07;94892.94;;;15.58;53.16
14067;BME280;7108;42.684;23.350;2024-02-23T12:33:38;94883.72;;;15.38;54.34
14067;BME280;7108;42.684;23.350;2024-02-23T12:36:08;94885.25;;;15.42;54.87
14067;BME280;7108;42.684;23.350;2024-02-23T12:38:35;94875.59;;;15.38;55.23
14067;BME280;7108;42.684;23.350;2024-02-23T12:41:01;94866.28;;;15.39;54.94
14067;BME280;7108;42.684;23.350;2024-02-23T12:43:27;94874.38;;;15.49;54.90
14067;BME280;7108;42.684;23.350;2024-02-23T12:45:53;94852.69;;;15.39;55.74
14067;BME280;7108;42.684;23.350;2024-02-23T12:48:20;94862.78;;;15.42;56.50
14067;BME280;7108;42.684;23.350;2024-02-23T12:50:49;94860.06;;;15.42;56.15
14067;BME280;7108;42.684;23.350;2024-02-23T12:53:35;94856.22;;;15.39;55.49